Centennial, WY (82055)

3:56 AM MDT on April 28, 2017 (GMT -0600)
Middle Mountain Estates | | Change Station
Active Advisory: Winter Storm Warning

Elev 8200 ft 41.31 °N, 106.15 °W | Updated 21 seconds ago

Mostly Cloudy
Mostly Cloudy
23.3 °F
Feels Like 18 °F
N
4.0
Wind Variable Wind from West

Today
High -- | Low -- °F
--% Chance of Precip.
Yesterday
High -- | Low -- °F
Precip. -- in
Pressure 29.56 in
Visibility 10.0 miles
Clouds Clear
Windchill 18 °F
Dew Point 16 °F
Humidity 74%
Rainfall 0.00 in
Snow Depth Not available.
6:05 AM 7:59 PM
Waxing Crescent, 5% visible
METAR KLAR 280953Z AUTO 26007KT 10SM CLR M04/M08 A2961 RMK AO2 SLP009 T10391078
Pressure 29.56 in
Visibility 10.0 miles
Clouds Clear
Windchill 18 °F
Dew Point 16 °F
Humidity 74%
Rainfall 0.00 in
Snow Depth Not available.
6:05 AM 7:59 PM
Waxing Crescent, 5% visible
METAR KLAR 280953Z AUTO 26007KT 10SM CLR M04/M08 A2961 RMK AO2 SLP009 T10391078

Get Your Daily Forecast Email!

Thanks for signing up!

Be on the lookout for a verification email in your inbox.

You'll start receiving severe weather alerts in your inbox..

×

10-Day Weather Forecast

Almanac

Astronomy

Apr. 28, 2017 Rise Set
Actual Time
Civil Twilight
Nautical Twilight
Astronomical Twilight
Moon
Length of Visible Light
Length of Day
Tomorrow will be .
, % of the Moon is Illuminated

Today's Extremes

State Highs State Lows

Community

WunderPhotos

WunderBlog® & News

Nearby

Air Quality

  Air Quality AQ Index Pollutant
Not available.

Snow Depth

Station Depth Elevation

Earthquake Activity

City Distance Mag. Time & Date
Minimum magnitude displayed is 2.5.

Coastal Water Temperatures

Place Temperature

Stations

Nearby Weather Stations

Station Location Temp. Windchill Dew Point Humidity Wind Precip. Elev Updated Type
                   

Watches & Warnings

Winter Storm Warning
Issued: 3:36 AM MDT Apr. 28, 2017 – National Weather Service

... Winter Storm Warning remains in effect until midnight MDT
tonight...

* timing... moderate to heavy snow will return Friday morning and
continue periodically through Friday evening.

* Total snow accumulations... 8 to 16 inches.

* Winds/visibility... west winds 20 to 25 mph with gusts to 35 mph
early Friday morning will diminish and become north 10 to 20
mph Friday afternoon. Visibilities will be reduced to one half
mile or less at times in snow and blowing snow.

* Impacts... travel will be extremely hazardous due to snow
covered roads and low visibilities. Those planning outdoor
recreation in the snowy and Sierra Madre Mountains should be
prepared for heavy snow and low visibilities.

Precautionary/preparedness actions...

A Winter Storm Warning for heavy snow means severe winter weather
conditions are expected or occurring. Significant amounts of snow
are forecast that will make travel dangerous. Only travel in an
emergency. If you must travel... keep an extra flashlight... food...
and water in your vehicle in case of an emergency.